Keaau, HI (96749)

3:27 PM HST on May 29, 2015 (GMT -1000)
Hawaiian Paradies Park | | Change Station
CLOSE
Current Station
Personal Weather Station
Location: Keaau, HI
Elevation: 344 ft
Nearby Weather Stations

Elev 344 ft 19.57 °N, 154.99 °W | Updated 3 minutes ago

Scattered Clouds
Scattered Clouds
81.9 °F
Feels Like 86 °F
N
3.2
Wind Variable Wind from NNW

Today
High -- | Low -- °F
--% Chance of Precip.
Yesterday
High -- | Low -- °F
Precip. -- in
5:40 AM 6:53 PM
Waxing Gibbous, 87% visible
Pressure 29.94 in
Visibility 10.0 miles
Clouds Scattered Clouds 8500 ft
Heat Index 86 °F
Dew Point 71 °F
Humidity 69%
Rainfall 0.00 in
Snow Depth Not available.
UV 7 out of 12
Pollen Not available.
Air Quality Not available.
Flu Activity Local Activity
METAR PHTO 300053Z 01010KT 10SM SCT085 27/21 A2994 RMK AO2 SLP138 T02720206

More Conditions Fewer Conditions

Pressure 29.94 in
Visibility 10.0 miles
Clouds Scattered Clouds 8500 ft
Heat Index 86 °F
Dew Point 71 °F
Humidity 69%
Rainfall 0.00 in
Snow Depth Not available.
UV 7 out of 12
Pollen Not available.
Air Quality Not available.
Flu Activity Local Activity
METAR PHTO 300053Z 01010KT 10SM SCT085 27/21 A2994 RMK AO2 SLP138 T02720206

More Conditions Fewer Conditions

10-Day Weather Forecast

Almanac

Astronomy

May. 29, 2015 Rise Set
Actual Time
Civil Twilight
Nautical Twilight
Astronomical Twilight
Moon
Length of Visible Light
Length of Day
Tomorrow will be .
, % of the Moon is Illuminated

Today's Extremes

State Highs State Lows

Community

WunderPhotos

Upload Photos

1,825,413 photos uploaded!

WunderBlogs® & News

Nearby

Air Quality

  Air Quality AQ Index Pollutant
Not available.

Snow Depth

Station Depth Elevation

Earthquake Activity

City Distance Mag. Time & Date
Minimum magnitude displayed is 2.5.

Coastal Water Temperatures

Place Temperature

Stations

Nearby Weather Stations

Station Location Temp. Windchill Dew Point Humidity Wind Precip. Elev Updated Type